Latest Coastal Weather Observations for Spring Bay

IDT60701

Issued at 7:35 pm EDT Sunday 26 October 2014 (issued every 10 minutes, with the page automatically refreshed every 10 minutes)

About coastal observations | Map of coastal stations | Coastal observations for TAS | Marine services | Other Formats
Station Details ID: 092133 Name: SPRING BAY NTC AWS Lat: -42.55 Lon: 147.93 Height: 0.0 m
Data from the previous 72 hours. | See also: Recent months for locations in Tasmania
Date/Time
EDT
Temp

°C
Wind Pressure Rain
since 9am
mm
Weather Cloud Vis
km
Sea
Height
m
Swell
Dir
 
Speed
knots
Gust
knots
hPa Trend Height
m
Period
s
Dir
26/07:30pm 13.2 N 8 13 1010.8 - - - - - - - - -
26/07:00pm 13.0 N 6 11 1010.9 - - - - - - - - -
26/06:30pm 13.1 NNE 9 14 1010.9 - - - - - - - - -
26/06:00pm 13.2 NNE 6 14 1011.0 - - - - - - - - -
26/05:30pm 13.3 NNE 5 12 1011.2 - - - - - - - - -
26/05:00pm 12.9 NNE 8 11 1011.6 - - - - - - - - -
26/04:30pm 12.7 NE 9 14 1011.8 - - - - - - - - -
26/04:00pm 12.6 NNE 9 13 1012.2 - - - - - - - - -
26/03:30pm 12.6 NE 10 15 1012.7 - - - - - - - - -
26/03:00pm 12.6 NE 10 17 1012.8 - - - - - - - - -
26/02:30pm 12.4 NE 10 17 1013.2 - - - - - - - - -
26/02:00pm 12.5 NE 10 18 1013.6 - - - - - - - - -
26/01:30pm 12.4 NE 12 18 1013.7 - - - - - - - - -
26/01:00pm 12.0 NE 11 17 1013.9 - - - - - - - - -
26/12:30pm 11.4 NE 13 18 1014.2 - - - - - - - - -
26/12:00pm 11.5 ENE 8 15 1014.5 - - - - - - - - -
26/11:30am 11.4 ENE 13 19 1014.5 - - - - - - - - -
26/11:00am 11.2 ENE 13 19 1014.7 - - - - - - - - -
26/10:30am 11.1 ENE 11 17 1014.8 - - - - - - - - -
26/10:00am 11.2 E 10 16 1014.9 - - - - - - - - -
26/09:30am 10.9 E 14 19 1015.1 - - - - - - - - -
26/09:00am 10.7 E 13 16 1015.1 - - - - - - - - -
26/08:30am 10.9 E 10 16 1014.9 - - - - - - - - -
26/08:00am 10.8 E 6 11 1014.8 - - - - - - - - -
26/07:30am 10.9 E 5 7 1014.8 - - - - - - - - -
26/07:00am 10.8 SE 9 11 1014.8 - - - - - - - - -
26/06:30am 10.6 SE 10 12 1014.7 - - - - - - - - -
26/06:00am 10.6 SE 12 13 1014.7 - - - - - - - - -
26/05:30am 10.5 ESE 9 12 1014.6 - - - - - - - - -
26/05:00am 10.7 SE 6 7 1014.7 - - - - - - - - -
26/04:30am 10.7 SE 8 10 1014.8 - - - - - - - - -
26/04:00am 10.6 SE 8 10 1015.0 - - - - - - - - -
26/03:30am 10.6 SE 9 11 1015.2 - - - - - - - - -
26/03:00am 10.4 ENE 4 6 1015.2 - - - - - - - - -
26/02:30am 10.2 ENE 3 5 1015.6 - - - - - - - - -
26/02:00am 10.3 E 4 7 1016.0 - - - - - - - - -
26/01:30am 10.3 ESE 6 8 1017.1 - - - - - - - - -
26/01:00am 10.5 SE 4 5 1017.6 - - - - - - - - -
26/12:30am 10.8 S 3 4 1017.8 - - - - - - - - -
26/12:00am 10.7 N 1 2 1017.5 - - - - - - - - -
 
Date/Time
EDT
Temp

°C
Wind Pressure Rain
since 9am
mm
Weather Cloud Vis
km
Sea
Height
m
Swell
Dir
 
Speed
knots
Gust
knots
hPa Trend Height
m
Period
s
Dir
25/11:30pm 10.8 NE 2 4 1017.2 - - - - - - - - -
25/11:00pm 11.1 E 6 8 1017.4 - - - - - - - - -
25/10:30pm 11.8 ESE 7 10 1018.0 - - - - - - - - -
25/10:00pm 12.0 ESE 11 13 1017.8 - - - - - - - - -
25/09:30pm 12.1 ESE 11 13 1017.7 - - - - - - - - -
25/09:00pm 12.1 SE 11 13 1018.0 - - - - - - - - -
25/08:30pm 12.2 SE 12 15 1017.9 - - - - - - - - -
25/08:00pm 12.2 ESE 11 17 1017.8 - - - - - - - - -
25/07:30pm 12.4 ESE 15 18 1017.3 - - - - - - - - -
25/07:00pm 12.5 SE 15 17 1017.0 - - - - - - - - -
25/06:30pm 12.7 SE 15 17 1016.8 - - - - - - - - -
25/06:00pm 12.9 ESE 13 17 1016.6 - - - - - - - - -
25/05:30pm 13.3 ESE 9 14 1016.5 - - - - - - - - -
25/05:00pm 13.5 ESE 10 14 1016.3 - - - - - - - - -
25/04:30pm 14.1 ESE 10 15 1016.2 - - - - - - - - -
25/04:00pm 14.0 ESE 15 17 1016.2 - - - - - - - - -
25/03:30pm 14.4 SE 16 18 1016.0 - - - - - - - - -
25/03:00pm 14.6 ESE 14 17 1015.9 - - - - - - - - -
25/02:30pm 15.4 ESE 10 14 1015.9 - - - - - - - - -
25/02:00pm 15.5 NE 7 10 1015.8 - - - - - - - - -
25/01:30pm 15.2 NNE 9 13 1015.4 - - - - - - - - -
25/01:00pm 16.6 E 6 11 1015.5 - - - - - - - - -
25/12:30pm 16.2 ESE 10 16 1015.4 - - - - - - - - -
25/12:00pm 15.9 ESE 14 16 1015.3 - - - - - - - - -
25/11:30am 15.6 SE 15 16 1015.4 - - - - - - - - -
25/11:00am 15.3 SE 13 15 1015.3 - - - - - - - - -
25/10:30am 15.2 SE 13 15 1015.2 - - - - - - - - -
25/10:00am 15.1 ESE 8 12 1015.0 - - - - - - - - -
25/09:30am 14.6 ESE 4 6 1014.7 - - - - - - - - -
25/09:00am 14.4 NNE 4 6 1014.6 - - - - - - - - -
25/08:30am 13.8 N 4 6 1014.2 - - - - - - - - -
25/08:00am 12.8 N 2 4 1013.8 - - - - - - - - -
25/07:30am 12.1 N 5 6 1013.0 - - - - - - - - -
25/07:00am 11.4 NNW 2 3 1012.9 - - - - - - - - -
25/06:30am 11.8 NNW 5 6 1012.3 - - - - - - - - -
25/06:00am 11.2 NW 4 5 1012.0 - - - - - - - - -
25/05:30am 11.9 NNW 1 4 1011.5 - - - - - - - - -
25/05:00am 12.0 ESE 1 2 1010.9 - - - - - - - - -
25/04:30am 12.4 NNE 1 3 1010.2 - - - - - - - - -
25/04:00am 12.7 ENE 2 3 1009.7 - - - - - - - - -
25/03:30am 13.4 N 1 3 1009.4 - - - - - - - - -
25/03:00am 14.0 N 1 2 1009.1 - - - - - - - - -
25/02:30am 14.1 WSW 4 7 1008.8 - - - - - - - - -
25/02:00am 15.7 SSE 3 6 1008.4 - - - - - - - - -
25/01:30am 16.2 S 10 12 1008.5 - - - - - - - - -
25/01:00am 16.2 SSW 5 7 1008.1 - - - - - - - - -
25/12:30am 14.9 S 6 10 1007.9 - - - - - - - - -
25/12:00am 13.9 SSE 1 3 1007.7 - - - - - - - - -
 
Date/Time
EDT
Temp

°C
Wind Pressure Rain
since 9am
mm
Weather Cloud Vis
km
Sea
Height
m
Swell
Dir
 
Speed
knots
Gust
knots
hPa Trend Height
m
Period
s
Dir
24/11:30pm 14.0 NW 1 2 1007.8 - - - - - - - - -
24/11:00pm 14.1 W 1 2 1008.0 - - - - - - - - -
24/10:30pm 14.4 SSW 2 3 1008.4 - - - - - - - - -
24/10:00pm 14.6 CALM 0 2 1008.5 - - - - - - - - -
24/09:30pm 15.1 WNW 3 5 1009.1 - - - - - - - - -
24/09:00pm 15.6 N 5 7 1008.8 - - - - - - - - -
24/08:30pm 15.5 NNW 7 9 1009.0 - - - - - - - - -
24/08:00pm 15.6 N 14 21 1008.2 - - - - - - - - -
24/07:30pm 15.8 N 7 15 1008.5 - - - - - - - - -
24/07:00pm 16.0 N 11 16 1009.6 - - - - - - - - -
24/06:30pm 15.9 N 10 15 1010.3 - - - - - - - - -
24/06:00pm 16.0 N 10 18 1009.8 - - - - - - - - -
24/05:30pm 15.6 N 8 18 1010.1 - - - - - - - - -
24/05:00pm 15.7 NNE 13 22 1010.3 - - - - - - - - -
24/04:30pm 15.4 NNE 12 22 1010.6 - - - - - - - - -
24/04:00pm 15.1 N 9 18 1011.3 - - - - - - - - -
24/03:30pm 14.9 N 9 17 1012.0 - - - - - - - - -
24/03:00pm 14.9 N 8 15 1012.7 - - - - - - - - -
24/02:30pm 14.7 N 10 17 1013.3 - - - - - - - - -
24/02:00pm 14.5 N 8 16 1013.9 - - - - - - - - -
24/01:30pm 14.2 N 7 13 1014.7 - - - - - - - - -
24/01:00pm 13.9 N 5 11 1015.3 - - - - - - - - -
24/12:30pm 13.8 N 11 19 1015.8 - - - - - - - - -
24/12:00pm 13.8 N 8 16 1016.5 - - - - - - - - -
24/11:30am 13.7 N 11 18 1017.0 - - - - - - - - -
24/11:00am 13.3 N 8 16 1017.4 - - - - - - - - -
24/10:30am 13.1 N 9 19 1018.0 - - - - - - - - -
24/10:00am 13.0 N 10 20 1018.3 - - - - - - - - -
24/09:30am 13.1 N 12 21 1018.9 - - - - - - - - -
24/09:00am 13.2 N 11 21 1019.6 - - - - - - - - -
24/08:30am 13.2 N 10 19 1019.9 - - - - - - - - -
24/08:00am 13.2 N 10 18 1020.4 - - - - - - - - -
24/07:30am 13.0 N 10 17 1020.4 - - - - - - - - -
24/07:00am 12.8 N 9 18 1020.8 - - - - - - - - -

Other Formats:

Comma delimited format used in spreadsheet applications
http://www.bom.gov.au/fwo/IDT60701/IDT60701.95987.axf

JavaScript Object Notation format (JSON) in row-major order
http://www.bom.gov.au/fwo/IDT60701/IDT60701.95987.json